sensor_id;sensor_type;location;lat;lon;timestamp;P1;durP1;ratioP1;P2;durP2;ratioP2
4323;SDS011;2175;51.018;6.994;2024-02-21T00:01:39;16.37;;;7.87;;
4323;SDS011;2175;51.018;6.994;2024-02-21T00:04:05;18.80;;;7.07;;
4323;SDS011;2175;51.018;6.994;2024-02-21T00:06:31;17.47;;;7.90;;
4323;SDS011;2175;51.018;6.994;2024-02-21T00:08:57;16.87;;;7.17;;
4323;SDS011;2175;51.018;6.994;2024-02-21T00:11:22;23.10;;;8.73;;
4323;SDS011;2175;51.018;6.994;2024-02-21T00:13:48;24.00;;;9.03;;
4323;SDS011;2175;51.018;6.994;2024-02-21T00:16:15;22.13;;;8.30;;
4323;SDS011;2175;51.018;6.994;2024-02-21T00:18:41;20.07;;;7.80;;
4323;SDS011;2175;51.018;6.994;2024-02-21T00:21:06;21.73;;;7.73;;
4323;SDS011;2175;51.018;6.994;2024-02-21T00:23:32;16.80;;;6.70;;
4323;SDS011;2175;51.018;6.994;2024-02-21T00:25:58;20.97;;;7.90;;
4323;SDS011;2175;51.018;6.994;2024-02-21T00:28:23;23.63;;;8.53;;
4323;SDS011;2175;51.018;6.994;2024-02-21T00:30:49;22.63;;;8.23;;
4323;SDS011;2175;51.018;6.994;2024-02-21T00:33:16;21.73;;;7.53;;
4323;SDS011;2175;51.018;6.994;2024-02-21T00:35:42;26.80;;;9.10;;
4323;SDS011;2175;51.018;6.994;2024-02-21T00:38:08;26.13;;;9.60;;
4323;SDS011;2175;51.018;6.994;2024-02-21T00:40:33;22.53;;;8.90;;
4323;SDS011;2175;51.018;6.994;2024-02-21T00:43:00;21.77;;;8.60;;
4323;SDS011;2175;51.018;6.994;2024-02-21T00:45:25;20.87;;;9.20;;
4323;SDS011;2175;51.018;6.994;2024-02-21T00:47:51;17.00;;;8.20;;
4323;SDS011;2175;51.018;6.994;2024-02-21T00:50:24;27.07;;;9.20;;
4323;SDS011;2175;51.018;6.994;2024-02-21T00:52:50;25.97;;;9.27;;
4323;SDS011;2175;51.018;6.994;2024-02-21T00:55:15;22.20;;;9.07;;
4323;SDS011;2175;51.018;6.994;2024-02-21T00:57:41;22.17;;;8.30;;
4323;SDS011;2175;51.018;6.994;2024-02-21T01:00:07;25.47;;;9.77;;
4323;SDS011;2175;51.018;6.994;2024-02-21T01:02:33;20.73;;;9.47;;
4323;SDS011;2175;51.018;6.994;2024-02-21T01:04:58;22.17;;;8.93;;
4323;SDS011;2175;51.018;6.994;2024-02-21T01:07:24;29.53;;;9.97;;
4323;SDS011;2175;51.018;6.994;2024-02-21T01:09:50;21.50;;;8.50;;
4323;SDS011;2175;51.018;6.994;2024-02-21T01:12:18;22.43;;;8.43;;
4323;SDS011;2175;51.018;6.994;2024-02-21T01:14:44;27.40;;;9.73;;
4323;SDS011;2175;51.018;6.994;2024-02-21T01:17:11;28.23;;;9.60;;
4323;SDS011;2175;51.018;6.994;2024-02-21T01:19:37;23.67;;;8.93;;
4323;SDS011;2175;51.018;6.994;2024-02-21T01:22:03;28.90;;;9.13;;
4323;SDS011;2175;51.018;6.994;2024-02-21T01:24:29;23.50;;;9.00;;
4323;SDS011;2175;51.018;6.994;2024-02-21T01:26:54;27.57;;;9.63;;
4323;SDS011;2175;51.018;6.994;2024-02-21T01:29:20;27.60;;;9.40;;
4323;SDS011;2175;51.018;6.994;2024-02-21T01:31:46;24.33;;;9.20;;
4323;SDS011;2175;51.018;6.994;2024-02-21T01:34:12;23.60;;;9.27;;
4323;SDS011;2175;51.018;6.994;2024-02-21T01:36:38;25.77;;;8.83;;
4323;SDS011;2175;51.018;6.994;2024-02-21T01:39:03;26.30;;;8.70;;
4323;SDS011;2175;51.018;6.994;2024-02-21T01:41:29;27.07;;;8.87;;
4323;SDS011;2175;51.018;6.994;2024-02-21T01:43:56;21.57;;;9.00;;
4323;SDS011;2175;51.018;6.994;2024-02-21T01:46:21;23.70;;;8.80;;
4323;SDS011;2175;51.018;6.994;2024-02-21T01:48:48;22.73;;;8.40;;
4323;SDS011;2175;51.018;6.994;2024-02-21T01:51:14;25.83;;;8.77;;
4323;SDS011;2175;51.018;6.994;2024-02-21T01:53:42;29.57;;;9.07;;
4323;SDS011;2175;51.018;6.994;2024-02-21T01:56:09;24.07;;;8.47;;
4323;SDS011;2175;51.018;6.994;2024-02-21T01:58:36;23.50;;;9.07;;
4323;SDS011;2175;51.018;6.994;2024-02-21T02:01:04;37.77;;;9.77;;
4323;SDS011;2175;51.018;6.994;2024-02-21T02:03:29;23.90;;;9.43;;
4323;SDS011;2175;51.018;6.994;2024-02-21T02:05:56;24.20;;;9.20;;
4323;SDS011;2175;51.018;6.994;2024-02-21T02:08:21;19.93;;;8.33;;
4323;SDS011;2175;51.018;6.994;2024-02-21T02:10:47;30.63;;;9.00;;
4323;SDS011;2175;51.018;6.994;2024-02-21T02:13:13;20.87;;;8.17;;
4323;SDS011;2175;51.018;6.994;2024-02-21T02:15:47;17.37;;;8.27;;
4323;SDS011;2175;51.018;6.994;2024-02-21T02:18:13;21.63;;;8.63;;
4323;SDS011;2175;51.018;6.994;2024-02-21T02:20:40;23.80;;;9.43;;
4323;SDS011;2175;51.018;6.994;2024-02-21T02:23:25;33.80;;;10.40;;
4323;SDS011;2175;51.018;6.994;2024-02-21T02:25:57;20.53;;;8.10;;
4323;SDS011;2175;51.018;6.994;2024-02-21T02:28:23;30.40;;;8.87;;
4323;SDS011;2175;51.018;6.994;2024-02-21T02:30:49;21.67;;;8.80;;
4323;SDS011;2175;51.018;6.994;2024-02-21T02:33:16;23.10;;;9.27;;
4323;SDS011;2175;51.018;6.994;2024-02-21T02:35:45;19.83;;;8.43;;
4323;SDS011;2175;51.018;6.994;2024-02-21T02:38:10;28.27;;;9.37;;
4323;SDS011;2175;51.018;6.994;2024-02-21T02:40:37;27.03;;;8.70;;
4323;SDS011;2175;51.018;6.994;2024-02-21T02:43:04;28.43;;;9.20;;
4323;SDS011;2175;51.018;6.994;2024-02-21T02:45:30;16.97;;;8.50;;
4323;SDS011;2175;51.018;6.994;2024-02-21T02:47:56;29.30;;;9.10;;
4323;SDS011;2175;51.018;6.994;2024-02-21T02:50:22;22.87;;;8.37;;
4323;SDS011;2175;51.018;6.994;2024-02-21T02:52:48;23.60;;;7.77;;
4323;SDS011;2175;51.018;6.994;2024-02-21T02:55:14;19.00;;;7.70;;
4323;SDS011;2175;51.018;6.994;2024-02-21T02:57:40;25.10;;;8.33;;
4323;SDS011;2175;51.018;6.994;2024-02-21T03:00:09;24.90;;;9.17;;
4323;SDS011;2175;51.018;6.994;2024-02-21T03:02:37;17.53;;;7.50;;
4323;SDS011;2175;51.018;6.994;2024-02-21T03:05:10;21.77;;;8.03;;
4323;SDS011;2175;51.018;6.994;2024-02-21T03:07:43;19.90;;;7.90;;
4323;SDS011;2175;51.018;6.994;2024-02-21T03:10:09;22.97;;;7.90;;
4323;SDS011;2175;51.018;6.994;2024-02-21T03:12:35;17.33;;;7.80;;
4323;SDS011;2175;51.018;6.994;2024-02-21T03:15:02;24.03;;;8.10;;
4323;SDS011;2175;51.018;6.994;2024-02-21T03:17:28;24.17;;;7.63;;
4323;SDS011;2175;51.018;6.994;2024-02-21T03:19:53;22.03;;;9.40;;
4323;SDS011;2175;51.018;6.994;2024-02-21T03:22:20;20.73;;;8.80;;
4323;SDS011;2175;51.018;6.994;2024-02-21T03:24:46;23.83;;;7.57;;
4323;SDS011;2175;51.018;6.994;2024-02-21T03:27:12;17.63;;;6.87;;
4323;SDS011;2175;51.018;6.994;2024-02-21T03:29:38;23.07;;;7.73;;
4323;SDS011;2175;51.018;6.994;2024-02-21T03:32:04;24.83;;;8.97;;
4323;SDS011;2175;51.018;6.994;2024-02-21T03:34:29;17.33;;;8.40;;
4323;SDS011;2175;51.018;6.994;2024-02-21T03:36:55;24.77;;;7.63;;
4323;SDS011;2175;51.018;6.994;2024-02-21T03:39:21;21.47;;;7.90;;
4323;SDS011;2175;51.018;6.994;2024-02-21T03:41:46;15.67;;;7.23;;
4323;SDS011;2175;51.018;6.994;2024-02-21T03:44:12;15.53;;;8.00;;
4323;SDS011;2175;51.018;6.994;2024-02-21T03:46:38;19.30;;;7.63;;
4323;SDS011;2175;51.018;6.994;2024-02-21T03:49:03;24.37;;;7.43;;
4323;SDS011;2175;51.018;6.994;2024-02-21T03:51:29;24.10;;;7.50;;
4323;SDS011;2175;51.018;6.994;2024-02-21T03:53:55;16.43;;;7.20;;
4323;SDS011;2175;51.018;6.994;2024-02-21T03:56:20;24.40;;;7.83;;
4323;SDS011;2175;51.018;6.994;2024-02-21T03:58:46;21.43;;;7.67;;
4323;SDS011;2175;51.018;6.994;2024-02-21T04:01:11;23.03;;;7.90;;
4323;SDS011;2175;51.018;6.994;2024-02-21T04:03:40;24.50;;;7.67;;
4323;SDS011;2175;51.018;6.994;2024-02-21T04:06:05;18.00;;;6.50;;
4323;SDS011;2175;51.018;6.994;2024-02-21T04:08:31;23.70;;;7.60;;
4323;SDS011;2175;51.018;6.994;2024-02-21T04:10:56;21.80;;;7.70;;
4323;SDS011;2175;51.018;6.994;2024-02-21T04:13:22;18.60;;;7.00;;
4323;SDS011;2175;51.018;6.994;2024-02-21T04:15:48;17.33;;;7.33;;
4323;SDS011;2175;51.018;6.994;2024-02-21T04:18:13;18.97;;;6.50;;
4323;SDS011;2175;51.018;6.994;2024-02-21T04:20:40;20.23;;;8.00;;
4323;SDS011;2175;51.018;6.994;2024-02-21T04:23:05;15.67;;;7.50;;
4323;SDS011;2175;51.018;6.994;2024-02-21T04:25:31;18.00;;;7.17;;
4323;SDS011;2175;51.018;6.994;2024-02-21T04:27:56;16.60;;;6.67;;
4323;SDS011;2175;51.018;6.994;2024-02-21T04:30:22;17.17;;;7.10;;
4323;SDS011;2175;51.018;6.994;2024-02-21T04:32:48;23.53;;;6.97;;
4323;SDS011;2175;51.018;6.994;2024-02-21T04:35:13;22.23;;;7.00;;
4323;SDS011;2175;51.018;6.994;2024-02-21T04:37:39;15.83;;;6.00;;
4323;SDS011;2175;51.018;6.994;2024-02-21T04:40:05;19.37;;;7.20;;
4323;SDS011;2175;51.018;6.994;2024-02-21T04:42:31;17.67;;;7.70;;
4323;SDS011;2175;51.018;6.994;2024-02-21T04:44:56;21.83;;;6.70;;
4323;SDS011;2175;51.018;6.994;2024-02-21T04:47:22;22.53;;;7.67;;
4323;SDS011;2175;51.018;6.994;2024-02-21T04:49:50;19.47;;;7.80;;
4323;SDS011;2175;51.018;6.994;2024-02-21T04:52:16;22.13;;;7.20;;
4323;SDS011;2175;51.018;6.994;2024-02-21T04:54:42;22.23;;;7.73;;
4323;SDS011;2175;51.018;6.994;2024-02-21T04:57:07;17.23;;;7.20;;
4323;SDS011;2175;51.018;6.994;2024-02-21T04:59:35;24.43;;;8.33;;
4323;SDS011;2175;51.018;6.994;2024-02-21T05:02:01;17.90;;;7.73;;
4323;SDS011;2175;51.018;6.994;2024-02-21T05:04:26;22.93;;;7.90;;
4323;SDS011;2175;51.018;6.994;2024-02-21T05:06:52;20.30;;;8.03;;
4323;SDS011;2175;51.018;6.994;2024-02-21T05:09:17;18.03;;;7.80;;
4323;SDS011;2175;51.018;6.994;2024-02-21T05:11:43;18.70;;;7.60;;
4323;SDS011;2175;51.018;6.994;2024-02-21T05:14:09;18.50;;;7.60;;
4323;SDS011;2175;51.018;6.994;2024-02-21T05:16:34;16.47;;;7.67;;
4323;SDS011;2175;51.018;6.994;2024-02-21T05:19:00;15.57;;;6.60;;
4323;SDS011;2175;51.018;6.994;2024-02-21T05:21:25;20.17;;;7.70;;
4323;SDS011;2175;51.018;6.994;2024-02-21T05:23:53;19.13;;;7.13;;
4323;SDS011;2175;51.018;6.994;2024-02-21T05:26:22;15.43;;;6.13;;
4323;SDS011;2175;51.018;6.994;2024-02-21T05:28:49;19.27;;;7.00;;
4323;SDS011;2175;51.018;6.994;2024-02-21T05:31:15;21.07;;;7.50;;
4323;SDS011;2175;51.018;6.994;2024-02-21T05:33:44;15.17;;;7.33;;
4323;SDS011;2175;51.018;6.994;2024-02-21T05:36:10;17.13;;;7.50;;
4323;SDS011;2175;51.018;6.994;2024-02-21T05:38:36;21.07;;;8.17;;
4323;SDS011;2175;51.018;6.994;2024-02-21T05:41:02;16.80;;;7.27;;
4323;SDS011;2175;51.018;6.994;2024-02-21T05:43:28;19.17;;;6.63;;
4323;SDS011;2175;51.018;6.994;2024-02-21T05:45:54;17.03;;;7.10;;
4323;SDS011;2175;51.018;6.994;2024-02-21T05:48:20;22.73;;;8.00;;
4323;SDS011;2175;51.018;6.994;2024-02-21T05:50:49;19.20;;;8.07;;
4323;SDS011;2175;51.018;6.994;2024-02-21T05:53:15;22.40;;;7.20;;
4323;SDS011;2175;51.018;6.994;2024-02-21T05:55:41;18.80;;;7.57;;
4323;SDS011;2175;51.018;6.994;2024-02-21T05:58:06;15.23;;;7.50;;
4323;SDS011;2175;51.018;6.994;2024-02-21T06:00:32;28.20;;;8.80;;
4323;SDS011;2175;51.018;6.994;2024-02-21T06:02:58;18.83;;;7.10;;
4323;SDS011;2175;51.018;6.994;2024-02-21T06:05:24;17.83;;;6.90;;
4323;SDS011;2175;51.018;6.994;2024-02-21T06:07:50;25.77;;;7.93;;
4323;SDS011;2175;51.018;6.994;2024-02-21T06:10:15;14.03;;;6.50;;
4323;SDS011;2175;51.018;6.994;2024-02-21T06:12:41;14.37;;;7.03;;
4323;SDS011;2175;51.018;6.994;2024-02-21T06:15:07;12.00;;;6.20;;
4323;SDS011;2175;51.018;6.994;2024-02-21T06:17:33;19.37;;;6.87;;
4323;SDS011;2175;51.018;6.994;2024-02-21T06:19:59;21.70;;;8.33;;
4323;SDS011;2175;51.018;6.994;2024-02-21T06:22:24;16.30;;;6.20;;
4323;SDS011;2175;51.018;6.994;2024-02-21T06:24:50;15.03;;;6.70;;
4323;SDS011;2175;51.018;6.994;2024-02-21T06:27:16;17.93;;;6.63;;
4323;SDS011;2175;51.018;6.994;2024-02-21T06:29:42;19.23;;;6.30;;
4323;SDS011;2175;51.018;6.994;2024-02-21T06:32:08;17.87;;;6.33;;
4323;SDS011;2175;51.018;6.994;2024-02-21T06:34:33;18.97;;;6.70;;
4323;SDS011;2175;51.018;6.994;2024-02-21T06:36:59;15.03;;;6.60;;
4323;SDS011;2175;51.018;6.994;2024-02-21T06:39:25;16.90;;;6.70;;
4323;SDS011;2175;51.018;6.994;2024-02-21T06:41:50;14.10;;;5.80;;
4323;SDS011;2175;51.018;6.994;2024-02-21T06:44:17;16.27;;;6.30;;
4323;SDS011;2175;51.018;6.994;2024-02-21T06:46:43;14.53;;;5.87;;
4323;SDS011;2175;51.018;6.994;2024-02-21T06:49:08;13.17;;;5.83;;
4323;SDS011;2175;51.018;6.994;2024-02-21T06:51:34;11.57;;;5.60;;
4323;SDS011;2175;51.018;6.994;2024-02-21T06:54:01;14.80;;;5.50;;
4323;SDS011;2175;51.018;6.994;2024-02-21T06:56:27;11.50;;;5.63;;
4323;SDS011;2175;51.018;6.994;2024-02-21T06:58:55;16.33;;;5.80;;
4323;SDS011;2175;51.018;6.994;2024-02-21T07:01:21;14.70;;;5.77;;
4323;SDS011;2175;51.018;6.994;2024-02-21T07:03:47;18.47;;;6.80;;
4323;SDS011;2175;51.018;6.994;2024-02-21T07:06:12;16.07;;;5.80;;
4323;SDS011;2175;51.018;6.994;2024-02-21T07:08:38;13.03;;;5.90;;
4323;SDS011;2175;51.018;6.994;2024-02-21T07:11:04;20.97;;;6.43;;
4323;SDS011;2175;51.018;6.994;2024-02-21T07:13:30;18.90;;;6.33;;
4323;SDS011;2175;51.018;6.994;2024-02-21T07:15:56;15.27;;;6.30;;
4323;SDS011;2175;51.018;6.994;2024-02-21T07:18:21;18.50;;;7.33;;
4323;SDS011;2175;51.018;6.994;2024-02-21T07:20:47;18.00;;;6.73;;
4323;SDS011;2175;51.018;6.994;2024-02-21T07:23:12;18.60;;;7.03;;
4323;SDS011;2175;51.018;6.994;2024-02-21T07:25:38;16.33;;;6.27;;
4323;SDS011;2175;51.018;6.994;2024-02-21T07:28:04;15.10;;;6.43;;
4323;SDS011;2175;51.018;6.994;2024-02-21T07:30:30;14.87;;;6.30;;
4323;SDS011;2175;51.018;6.994;2024-02-21T07:32:56;19.43;;;6.40;;
4323;SDS011;2175;51.018;6.994;2024-02-21T07:35:21;15.43;;;7.03;;
4323;SDS011;2175;51.018;6.994;2024-02-21T07:37:47;16.43;;;6.77;;
4323;SDS011;2175;51.018;6.994;2024-02-21T07:40:13;14.97;;;6.60;;
4323;SDS011;2175;51.018;6.994;2024-02-21T07:42:40;15.30;;;6.60;;
4323;SDS011;2175;51.018;6.994;2024-02-21T07:45:06;14.40;;;6.47;;
4323;SDS011;2175;51.018;6.994;2024-02-21T07:47:33;14.57;;;6.63;;
4323;SDS011;2175;51.018;6.994;2024-02-21T07:49:58;13.03;;;6.17;;
4323;SDS011;2175;51.018;6.994;2024-02-21T07:52:24;19.83;;;7.13;;
4323;SDS011;2175;51.018;6.994;2024-02-21T07:54:50;19.23;;;7.00;;
4323;SDS011;2175;51.018;6.994;2024-02-21T07:57:15;13.03;;;6.07;;
4323;SDS011;2175;51.018;6.994;2024-02-21T07:59:42;13.73;;;5.70;;
4323;SDS011;2175;51.018;6.994;2024-02-21T08:02:08;13.30;;;5.77;;
4323;SDS011;2175;51.018;6.994;2024-02-21T08:04:34;14.03;;;5.10;;
4323;SDS011;2175;51.018;6.994;2024-02-21T08:06:59;9.87;;;5.20;;
4323;SDS011;2175;51.018;6.994;2024-02-21T08:09:27;13.00;;;5.20;;
4323;SDS011;2175;51.018;6.994;2024-02-21T08:11:54;18.20;;;6.00;;
4323;SDS011;2175;51.018;6.994;2024-02-21T08:14:19;13.50;;;5.00;;
4323;SDS011;2175;51.018;6.994;2024-02-21T08:16:45;15.53;;;5.60;;
4323;SDS011;2175;51.018;6.994;2024-02-21T08:19:11;11.50;;;5.10;;
4323;SDS011;2175;51.018;6.994;2024-02-21T08:21:36;16.47;;;5.60;;
4323;SDS011;2175;51.018;6.994;2024-02-21T08:24:02;12.83;;;4.90;;
4323;SDS011;2175;51.018;6.994;2024-02-21T08:26:28;20.10;;;5.37;;
4323;SDS011;2175;51.018;6.994;2024-02-21T08:28:55;15.43;;;5.33;;
4323;SDS011;2175;51.018;6.994;2024-02-21T08:31:24;18.47;;;5.60;;
4323;SDS011;2175;51.018;6.994;2024-02-21T08:33:56;25.23;;;7.23;;
4323;SDS011;2175;51.018;6.994;2024-02-21T08:36:27;11.83;;;5.43;;
4323;SDS011;2175;51.018;6.994;2024-02-21T08:38:53;17.30;;;6.80;;
4323;SDS011;2175;51.018;6.994;2024-02-21T08:41:19;15.07;;;5.17;;
4323;SDS011;2175;51.018;6.994;2024-02-21T08:43:46;12.30;;;5.10;;
4323;SDS011;2175;51.018;6.994;2024-02-21T08:46:12;14.57;;;6.00;;
4323;SDS011;2175;51.018;6.994;2024-02-21T08:48:37;13.00;;;5.20;;
4323;SDS011;2175;51.018;6.994;2024-02-21T08:51:03;13.50;;;5.37;;
4323;SDS011;2175;51.018;6.994;2024-02-21T08:53:29;15.53;;;5.97;;
4323;SDS011;2175;51.018;6.994;2024-02-21T08:55:55;17.07;;;6.07;;
4323;SDS011;2175;51.018;6.994;2024-02-21T08:58:20;19.97;;;5.60;;
4323;SDS011;2175;51.018;6.994;2024-02-21T09:00:48;29.80;;;7.07;;
4323;SDS011;2175;51.018;6.994;2024-02-21T09:03:14;14.23;;;5.77;;
4323;SDS011;2175;51.018;6.994;2024-02-21T09:05:40;13.40;;;5.80;;
4323;SDS011;2175;51.018;6.994;2024-02-21T09:08:06;16.40;;;6.13;;
4323;SDS011;2175;51.018;6.994;2024-02-21T09:10:31;12.77;;;5.90;;
4323;SDS011;2175;51.018;6.994;2024-02-21T09:12:57;18.87;;;5.70;;
4323;SDS011;2175;51.018;6.994;2024-02-21T09:15:22;17.40;;;5.60;;
4323;SDS011;2175;51.018;6.994;2024-02-21T09:17:49;17.87;;;5.13;;
4323;SDS011;2175;51.018;6.994;2024-02-21T09:20:14;23.03;;;5.90;;
4323;SDS011;2175;51.018;6.994;2024-02-21T09:22:41;23.03;;;6.30;;
4323;SDS011;2175;51.018;6.994;2024-02-21T09:25:07;18.90;;;5.77;;
4323;SDS011;2175;51.018;6.994;2024-02-21T09:27:35;15.07;;;5.43;;
4323;SDS011;2175;51.018;6.994;2024-02-21T09:30:00;14.93;;;5.80;;
4323;SDS011;2175;51.018;6.994;2024-02-21T09:32:26;18.37;;;5.77;;
4323;SDS011;2175;51.018;6.994;2024-02-21T09:34:52;15.87;;;5.50;;
4323;SDS011;2175;51.018;6.994;2024-02-21T09:37:19;20.47;;;5.53;;
4323;SDS011;2175;51.018;6.994;2024-02-21T09:39:45;13.17;;;5.07;;
4323;SDS011;2175;51.018;6.994;2024-02-21T09:42:12;15.03;;;5.03;;
4323;SDS011;2175;51.018;6.994;2024-02-21T09:44:42;13.67;;;5.40;;
4323;SDS011;2175;51.018;6.994;2024-02-21T09:47:12;12.50;;;5.13;;
4323;SDS011;2175;51.018;6.994;2024-02-21T09:49:47;11.13;;;5.40;;
4323;SDS011;2175;51.018;6.994;2024-02-21T09:52:13;14.70;;;5.10;;
4323;SDS011;2175;51.018;6.994;2024-02-21T09:54:41;19.90;;;5.47;;
4323;SDS011;2175;51.018;6.994;2024-02-21T09:57:09;15.27;;;4.83;;
4323;SDS011;2175;51.018;6.994;2024-02-21T09:59:37;17.87;;;6.10;;
4323;SDS011;2175;51.018;6.994;2024-02-21T10:02:03;13.93;;;5.60;;
4323;SDS011;2175;51.018;6.994;2024-02-21T10:04:30;16.40;;;5.00;;
4323;SDS011;2175;51.018;6.994;2024-02-21T10:06:57;14.30;;;5.80;;
4323;SDS011;2175;51.018;6.994;2024-02-21T10:09:26;20.87;;;5.13;;
4323;SDS011;2175;51.018;6.994;2024-02-21T10:11:53;11.87;;;4.60;;
4323;SDS011;2175;51.018;6.994;2024-02-21T10:14:19;14.50;;;5.40;;
4323;SDS011;2175;51.018;6.994;2024-02-21T10:16:48;10.23;;;4.27;;
4323;SDS011;2175;51.018;6.994;2024-02-21T10:19:21;17.03;;;5.57;;
4323;SDS011;2175;51.018;6.994;2024-02-21T10:22:06;17.23;;;5.37;;
4323;SDS011;2175;51.018;6.994;2024-02-21T10:24:33;19.87;;;6.30;;
4323;SDS011;2175;51.018;6.994;2024-02-21T10:27:02;11.50;;;4.60;;
4323;SDS011;2175;51.018;6.994;2024-02-21T10:29:32;13.30;;;4.53;;
4323;SDS011;2175;51.018;6.994;2024-02-21T10:32:04;13.97;;;4.70;;
4323;SDS011;2175;51.018;6.994;2024-02-21T10:34:32;13.27;;;4.77;;
4323;SDS011;2175;51.018;6.994;2024-02-21T10:37:01;11.10;;;4.80;;
4323;SDS011;2175;51.018;6.994;2024-02-21T10:39:31;14.93;;;4.67;;
4323;SDS011;2175;51.018;6.994;2024-02-21T10:41:59;9.10;;;4.10;;
4323;SDS011;2175;51.018;6.994;2024-02-21T10:44:31;10.73;;;4.03;;
4323;SDS011;2175;51.018;6.994;2024-02-21T10:46:58;12.30;;;4.80;;
4323;SDS011;2175;51.018;6.994;2024-02-21T10:49:27;16.10;;;5.10;;
4323;SDS011;2175;51.018;6.994;2024-02-21T10:52:19;13.63;;;4.17;;
4323;SDS011;2175;51.018;6.994;2024-02-21T10:54:58;11.03;;;4.17;;
4323;SDS011;2175;51.018;6.994;2024-02-21T10:57:28;12.97;;;3.93;;
4323;SDS011;2175;51.018;6.994;2024-02-21T10:59:56;11.53;;;4.07;;
4323;SDS011;2175;51.018;6.994;2024-02-21T11:02:24;15.83;;;5.20;;
4323;SDS011;2175;51.018;6.994;2024-02-21T11:04:51;9.90;;;4.60;;
4323;SDS011;2175;51.018;6.994;2024-02-21T11:07:18;11.20;;;4.60;;
4323;SDS011;2175;51.018;6.994;2024-02-21T11:09:50;11.17;;;4.17;;
4323;SDS011;2175;51.018;6.994;2024-02-21T11:12:20;15.37;;;4.77;;
4323;SDS011;2175;51.018;6.994;2024-02-21T11:14:47;10.83;;;4.20;;
4323;SDS011;2175;51.018;6.994;2024-02-21T11:17:19;11.83;;;5.47;;
4323;SDS011;2175;51.018;6.994;2024-02-21T11:19:51;11.83;;;4.27;;
4323;SDS011;2175;51.018;6.994;2024-02-21T11:22:17;12.13;;;4.17;;
4323;SDS011;2175;51.018;6.994;2024-02-21T11:24:44;13.77;;;4.53;;
4323;SDS011;2175;51.018;6.994;2024-02-21T11:27:14;13.57;;;4.70;;
4323;SDS011;2175;51.018;6.994;2024-02-21T11:29:47;11.57;;;4.83;;
4323;SDS011;2175;51.018;6.994;2024-02-21T11:32:18;12.57;;;4.40;;
4323;SDS011;2175;51.018;6.994;2024-02-21T11:37:28;11.03;;;4.17;;
4323;SDS011;2175;51.018;6.994;2024-02-21T11:39:55;12.80;;;4.30;;
4323;SDS011;2175;51.018;6.994;2024-02-21T11:42:21;9.13;;;3.80;;
4323;SDS011;2175;51.018;6.994;2024-02-21T11:44:47;15.00;;;4.23;;
4323;SDS011;2175;51.018;6.994;2024-02-21T11:47:14;11.53;;;4.43;;
4323;SDS011;2175;51.018;6.994;2024-02-21T11:49:47;13.47;;;3.80;;
4323;SDS011;2175;51.018;6.994;2024-02-21T11:52:19;11.63;;;4.10;;
4323;SDS011;2175;51.018;6.994;2024-02-21T11:54:47;11.40;;;4.23;;
4323;SDS011;2175;51.018;6.994;2024-02-21T11:57:13;11.77;;;3.90;;
4323;SDS011;2175;51.018;6.994;2024-02-21T11:59:39;12.80;;;3.80;;
4323;SDS011;2175;51.018;6.994;2024-02-21T12:02:06;13.80;;;4.43;;
4323;SDS011;2175;51.018;6.994;2024-02-21T12:04:32;15.30;;;4.23;;
4323;SDS011;2175;51.018;6.994;2024-02-21T12:06:58;15.70;;;4.30;;
4323;SDS011;2175;51.018;6.994;2024-02-21T12:09:25;11.83;;;4.37;;
4323;SDS011;2175;51.018;6.994;2024-02-21T12:12:01;15.87;;;4.20;;
4323;SDS011;2175;51.018;6.994;2024-02-21T12:14:31;11.43;;;3.57;;
4323;SDS011;2175;51.018;6.994;2024-02-21T12:17:00;14.80;;;4.47;;
4323;SDS011;2175;51.018;6.994;2024-02-21T12:19:29;16.13;;;4.27;;
4323;SDS011;2175;51.018;6.994;2024-02-21T12:21:56;16.60;;;4.20;;
4323;SDS011;2175;51.018;6.994;2024-02-21T12:24:24;13.70;;;4.30;;
4323;SDS011;2175;51.018;6.994;2024-02-21T12:26:51;12.50;;;4.73;;
4323;SDS011;2175;51.018;6.994;2024-02-21T12:29:17;11.43;;;4.03;;
4323;SDS011;2175;51.018;6.994;2024-02-21T12:31:44;12.17;;;4.57;;
4323;SDS011;2175;51.018;6.994;2024-02-21T12:34:10;14.00;;;4.13;;
4323;SDS011;2175;51.018;6.994;2024-02-21T12:36:45;11.73;;;4.33;;
4323;SDS011;2175;51.018;6.994;2024-02-21T12:39:14;14.57;;;3.70;;
4323;SDS011;2175;51.018;6.994;2024-02-21T12:41:40;11.03;;;4.30;;
4323;SDS011;2175;51.018;6.994;2024-02-21T12:44:08;12.23;;;4.43;;
4323;SDS011;2175;51.018;6.994;2024-02-21T12:46:34;13.00;;;4.47;;
4323;SDS011;2175;51.018;6.994;2024-02-21T12:49:00;10.43;;;3.60;;
4323;SDS011;2175;51.018;6.994;2024-02-21T12:51:26;13.73;;;3.70;;
4323;SDS011;2175;51.018;6.994;2024-02-21T12:53:51;11.40;;;3.63;;
4323;SDS011;2175;51.018;6.994;2024-02-21T12:56:17;11.67;;;4.00;;
4323;SDS011;2175;51.018;6.994;2024-02-21T12:58:43;10.30;;;4.10;;
4323;SDS011;2175;51.018;6.994;2024-02-21T13:01:09;13.83;;;4.20;;
4323;SDS011;2175;51.018;6.994;2024-02-21T13:03:35;13.37;;;3.80;;
4323;SDS011;2175;51.018;6.994;2024-02-21T13:06:01;12.10;;;4.50;;
4323;SDS011;2175;51.018;6.994;2024-02-21T13:08:26;12.97;;;4.23;;
4323;SDS011;2175;51.018;6.994;2024-02-21T13:10:52;12.77;;;4.30;;
4323;SDS011;2175;51.018;6.994;2024-02-21T13:13:17;13.90;;;3.90;;
4323;SDS011;2175;51.018;6.994;2024-02-21T13:15:43;15.50;;;3.73;;
4323;SDS011;2175;51.018;6.994;2024-02-21T13:18:09;12.57;;;4.07;;
4323;SDS011;2175;51.018;6.994;2024-02-21T13:20:35;11.03;;;3.67;;
4323;SDS011;2175;51.018;6.994;2024-02-21T13:23:01;18.03;;;4.13;;
4323;SDS011;2175;51.018;6.994;2024-02-21T13:25:27;8.33;;;3.57;;
4323;SDS011;2175;51.018;6.994;2024-02-21T13:27:53;9.47;;;3.60;;
4323;SDS011;2175;51.018;6.994;2024-02-21T13:30:18;10.07;;;3.77;;
4323;SDS011;2175;51.018;6.994;2024-02-21T13:32:44;12.10;;;3.70;;
4323;SDS011;2175;51.018;6.994;2024-02-21T13:35:13;10.77;;;3.97;;
4323;SDS011;2175;51.018;6.994;2024-02-21T13:37:40;10.40;;;3.70;;
4323;SDS011;2175;51.018;6.994;2024-02-21T13:40:06;12.03;;;3.70;;
4323;SDS011;2175;51.018;6.994;2024-02-21T13:42:34;9.33;;;3.70;;
4323;SDS011;2175;51.018;6.994;2024-02-21T13:45:00;11.57;;;3.60;;
4323;SDS011;2175;51.018;6.994;2024-02-21T13:47:26;7.20;;;3.40;;
4323;SDS011;2175;51.018;6.994;2024-02-21T13:49:52;12.20;;;4.27;;
4323;SDS011;2175;51.018;6.994;2024-02-21T13:52:17;11.03;;;4.23;;
4323;SDS011;2175;51.018;6.994;2024-02-21T13:54:46;8.87;;;3.13;;
4323;SDS011;2175;51.018;6.994;2024-02-21T13:57:11;7.63;;;3.97;;
4323;SDS011;2175;51.018;6.994;2024-02-21T13:59:37;13.10;;;3.80;;
4323;SDS011;2175;51.018;6.994;2024-02-21T14:02:04;8.03;;;3.43;;
4323;SDS011;2175;51.018;6.994;2024-02-21T14:04:32;8.90;;;3.70;;
4323;SDS011;2175;51.018;6.994;2024-02-21T14:06:58;13.03;;;3.93;;
4323;SDS011;2175;51.018;6.994;2024-02-21T14:09:24;15.80;;;3.80;;
4323;SDS011;2175;51.018;6.994;2024-02-21T14:11:49;13.53;;;3.90;;
4323;SDS011;2175;51.018;6.994;2024-02-21T14:14:15;10.40;;;3.70;;
4323;SDS011;2175;51.018;6.994;2024-02-21T14:16:41;8.07;;;3.43;;
4323;SDS011;2175;51.018;6.994;2024-02-21T14:19:06;11.77;;;3.70;;
4323;SDS011;2175;51.018;6.994;2024-02-21T14:21:33;10.90;;;3.60;;
4323;SDS011;2175;51.018;6.994;2024-02-21T14:24:02;7.70;;;3.13;;
4323;SDS011;2175;51.018;6.994;2024-02-21T14:26:28;18.03;;;4.33;;
4323;SDS011;2175;51.018;6.994;2024-02-21T14:28:56;12.00;;;4.60;;
4323;SDS011;2175;51.018;6.994;2024-02-21T14:31:22;9.87;;;3.80;;
4323;SDS011;2175;51.018;6.994;2024-02-21T14:33:47;13.20;;;3.60;;
4323;SDS011;2175;51.018;6.994;2024-02-21T14:36:13;14.07;;;3.33;;
4323;SDS011;2175;51.018;6.994;2024-02-21T14:38:40;8.90;;;3.57;;
4323;SDS011;2175;51.018;6.994;2024-02-21T14:41:06;8.00;;;3.47;;
4323;SDS011;2175;51.018;6.994;2024-02-21T14:43:32;12.10;;;3.60;;
4323;SDS011;2175;51.018;6.994;2024-02-21T14:45:59;8.90;;;3.77;;
4323;SDS011;2175;51.018;6.994;2024-02-21T14:48:25;11.97;;;3.73;;
4323;SDS011;2175;51.018;6.994;2024-02-21T14:50:53;18.03;;;4.50;;
4323;SDS011;2175;51.018;6.994;2024-02-21T14:53:19;10.03;;;3.60;;
4323;SDS011;2175;51.018;6.994;2024-02-21T14:55:45;8.87;;;3.33;;
4323;SDS011;2175;51.018;6.994;2024-02-21T14:58:10;13.93;;;3.63;;
4323;SDS011;2175;51.018;6.994;2024-02-21T15:00:36;12.53;;;3.93;;
4323;SDS011;2175;51.018;6.994;2024-02-21T15:03:02;9.27;;;3.90;;